createdAt,value
2024-01-15T00:00:15.657Z,73.89
2024-01-15T00:02:45.058Z,71.56
2024-01-15T00:05:13.264Z,71.40
2024-01-15T00:07:41.543Z,72.36
2024-01-15T00:10:10.104Z,72.21
2024-01-15T00:12:38.328Z,72.49
2024-01-15T00:15:07.833Z,71.56
2024-01-15T00:17:37.583Z,71.94
2024-01-15T00:20:06.915Z,72.09
2024-01-15T00:22:36.760Z,69.66
2024-01-15T00:25:05.431Z,71.04
2024-01-15T00:27:33.729Z,70.35
2024-01-15T00:30:02.009Z,71.22
2024-01-15T00:32:30.218Z,69.86
2024-01-15T00:34:59.893Z,70.02
2024-01-15T00:37:28.212Z,70.13
2024-01-15T00:39:56.504Z,69.62
2024-01-15T00:42:24.773Z,69.25
2024-01-15T00:44:53.121Z,69.72
2024-01-15T00:47:23.873Z,69.81
2024-01-15T00:49:52.205Z,69.74
2024-01-15T00:52:21.911Z,70.24
2024-01-15T00:54:50.169Z,69.63
2024-01-15T00:57:20.408Z,69.08
2024-01-15T00:59:49.827Z,69.39
2024-01-15T01:02:20.003Z,69.08
2024-01-15T01:04:48.332Z,70.30
2024-01-15T01:07:16.565Z,70.09
2024-01-15T01:09:46.919Z,69.98
2024-01-15T01:12:15.268Z,69.75
2024-01-15T01:14:43.523Z,70.18
2024-01-15T01:17:13.174Z,70.17
2024-01-15T01:19:41.636Z,70.09
2024-01-15T01:22:10.174Z,70.80
2024-01-15T01:24:38.393Z,70.54
2024-01-15T01:27:08.465Z,71.28
2024-01-15T01:29:37.588Z,70.60
2024-01-15T01:32:06.522Z,69.31
2024-01-15T01:34:35.792Z,69.13
2024-01-15T01:37:04.453Z,70.52
2024-01-15T01:39:32.766Z,69.68
2024-01-15T01:42:01.124Z,70.62
2024-01-15T01:44:31.148Z,70.09
2024-01-15T01:47:01.150Z,69.88
2024-01-15T01:49:30.513Z,70.37
2024-01-15T01:51:59.476Z,71.77
2024-01-15T01:54:30.327Z,70.21
2024-01-15T01:57:00.267Z,71.45
2024-01-15T01:59:31.119Z,70.57
2024-01-15T02:02:03.791Z,69.89
2024-01-15T02:04:33.621Z,71.10
2024-01-15T02:07:02.259Z,71.02
2024-01-15T02:09:30.709Z,70.57
2024-01-15T02:11:58.985Z,71.45
2024-01-15T02:14:27.222Z,71.85
2024-01-15T02:16:56.991Z,70.57
2024-01-15T02:19:25.379Z,72.05
2024-01-15T02:21:53.799Z,72.30
2024-01-15T02:24:23.932Z,70.34
2024-01-15T02:26:52.395Z,71.82
2024-01-15T02:29:20.631Z,71.93
2024-01-15T02:31:49.300Z,72.39
2024-01-15T02:34:17.798Z,71.41
2024-01-15T02:36:46.173Z,71.49
2024-01-15T02:39:14.477Z,71.62
2024-01-15T02:41:44.152Z,71.69
2024-01-15T02:44:12.356Z,71.82
2024-01-15T02:46:40.536Z,71.56
2024-01-15T02:49:08.867Z,71.55
2024-01-15T02:51:37.190Z,71.90
2024-01-15T02:54:06.524Z,71.55
2024-01-15T02:56:34.768Z,72.48
2024-01-15T02:59:05.132Z,72.55
2024-01-15T03:01:34.528Z,71.64
2024-01-15T03:04:02.802Z,72.56
2024-01-15T03:09:00.278Z,71.74
2024-01-15T03:11:28.604Z,71.80
2024-01-15T03:13:57.006Z,71.41
2024-01-15T03:16:26.727Z,71.96
2024-01-15T03:18:55.254Z,72.64
2024-01-15T03:21:23.694Z,72.35
2024-01-15T03:23:52.224Z,73.01
2024-01-15T03:26:20.396Z,71.78
2024-01-15T03:28:48.552Z,72.44
2024-01-15T03:31:16.868Z,71.95
2024-01-15T03:33:46.955Z,71.88
2024-01-15T03:36:15.295Z,72.64
2024-01-15T03:38:44.066Z,72.41
2024-01-15T03:41:12.579Z,72.26
2024-01-15T03:43:41.058Z,72.96
2024-01-15T03:46:09.675Z,73.29
2024-01-15T03:48:38.047Z,73.21
2024-01-15T03:51:07.925Z,72.59
2024-01-15T03:53:36.100Z,73.18
2024-01-15T03:56:04.405Z,72.93
2024-01-15T03:58:32.606Z,72.68
2024-01-15T04:01:01.135Z,73.16
2024-01-15T04:03:29.472Z,72.66
2024-01-15T04:05:58.588Z,73.55
2024-01-15T04:08:28.270Z,73.20
2024-01-15T04:10:57.061Z,72.54
2024-01-15T04:13:25.381Z,73.35
2024-01-15T04:15:53.715Z,72.93
2024-01-15T04:18:22.077Z,72.62
2024-01-15T04:20:50.248Z,73.21
2024-01-15T04:23:18.446Z,73.19
2024-01-15T04:25:48.102Z,73.30
2024-01-15T04:28:16.420Z,73.04
2024-01-15T04:30:44.801Z,72.96
2024-01-15T04:33:13.116Z,73.34
2024-01-15T04:35:41.403Z,73.63
2024-01-15T04:38:09.655Z,73.42
2024-01-15T04:40:37.874Z,72.40
2024-01-15T04:43:07.571Z,73.48
2024-01-15T04:45:35.875Z,72.36
2024-01-15T04:48:04.555Z,72.99
2024-01-15T04:50:32.747Z,72.56
2024-01-15T04:53:00.966Z,73.53
2024-01-15T04:55:29.178Z,72.52
2024-01-15T04:57:57.359Z,73.37
2024-01-15T05:00:27.033Z,72.98
2024-01-15T05:02:55.273Z,72.58
2024-01-15T05:05:23.531Z,72.41
2024-01-15T05:07:51.774Z,73.90
2024-01-15T05:10:19.982Z,72.84
2024-01-15T05:12:48.315Z,73.12
2024-01-15T05:15:16.551Z,73.49
2024-01-15T05:17:46.361Z,73.46
2024-01-15T05:20:14.844Z,74.05
2024-01-15T05:22:43.141Z,74.16
2024-01-15T05:25:11.392Z,73.77
2024-01-15T05:27:39.600Z,74.13
2024-01-15T05:30:09.060Z,74.13
2024-01-15T05:32:37.297Z,74.68
2024-01-15T05:35:07.682Z,74.46
2024-01-15T05:37:35.984Z,74.03
2024-01-15T05:40:05.905Z,74.51
2024-01-15T05:42:34.237Z,74.11
2024-01-15T05:45:04.253Z,73.81
2024-01-15T05:47:32.499Z,73.77
2024-01-15T05:50:00.830Z,73.76
2024-01-15T05:52:31.818Z,73.81
2024-01-15T05:55:00.169Z,73.93
2024-01-15T05:57:29.103Z,74.26
2024-01-15T05:59:57.340Z,74.06
2024-01-15T06:02:25.675Z,74.21
2024-01-15T06:04:54.000Z,74.33
2024-01-15T06:07:22.317Z,74.28
2024-01-15T06:09:52.008Z,74.55
2024-01-15T06:12:20.205Z,74.63
2024-01-15T06:14:48.539Z,74.40
2024-01-15T06:17:16.715Z,74.53
2024-01-15T06:19:45.014Z,73.96
2024-01-15T06:22:13.297Z,73.99
2024-01-15T06:24:41.539Z,73.59
2024-01-15T06:27:11.205Z,73.74
2024-01-15T06:29:40.676Z,74.29
2024-01-15T06:32:08.626Z,73.76
2024-01-15T06:34:36.635Z,73.40
2024-01-15T06:37:05.020Z,74.08
2024-01-15T06:39:33.377Z,74.19
2024-01-15T06:42:02.829Z,74.27
2024-01-15T06:44:32.396Z,74.42
2024-01-15T06:47:03.785Z,74.46
2024-01-15T06:49:32.406Z,74.90
2024-01-15T06:52:00.767Z,75.01
2024-01-15T06:54:29.096Z,74.70
2024-01-15T06:56:58.720Z,74.92
2024-01-15T06:59:26.866Z,74.88
2024-01-15T07:01:56.738Z,74.90
2024-01-15T07:04:25.122Z,75.02
2024-01-15T07:06:53.494Z,75.08
2024-01-15T07:09:22.050Z,74.96
2024-01-15T07:11:50.245Z,74.60
2024-01-15T07:14:18.385Z,75.00
2024-01-15T07:16:48.730Z,74.90
2024-01-15T07:19:18.929Z,75.33
2024-01-15T07:21:47.238Z,75.97
2024-01-15T07:24:15.578Z,75.70
2024-01-15T07:26:43.909Z,75.43
2024-01-15T07:29:12.158Z,75.67
2024-01-15T07:31:40.460Z,75.97
2024-01-15T07:34:24.331Z,76.48
2024-01-15T07:36:54.016Z,76.03
2024-01-15T07:39:24.059Z,76.61
2024-01-15T07:41:52.471Z,77.32
2024-01-15T07:44:20.620Z,76.31
2024-01-15T07:46:49.403Z,76.41
2024-01-15T07:49:18.010Z,75.93
2024-01-15T07:51:46.542Z,75.64
2024-01-15T07:54:16.192Z,76.59
2024-01-15T07:56:57.625Z,76.58
2024-01-15T07:59:26.307Z,76.32
2024-01-15T08:01:54.723Z,76.85
2024-01-15T08:04:23.189Z,76.75
2024-01-15T08:06:51.647Z,77.08
2024-01-15T08:09:21.366Z,77.16
2024-01-15T08:11:50.389Z,76.78
2024-01-15T08:14:18.640Z,76.99
2024-01-15T08:16:46.828Z,77.35
2024-01-15T08:19:15.707Z,76.70
2024-01-15T08:21:44.144Z,76.73
2024-01-15T08:24:12.412Z,77.23
2024-01-15T08:26:42.260Z,77.16
2024-01-15T08:29:10.982Z,76.84
2024-01-15T08:31:39.340Z,76.65
2024-01-15T08:34:08.000Z,77.58
2024-01-15T08:36:37.514Z,76.96
2024-01-15T08:39:06.000Z,77.81
2024-01-15T08:41:35.058Z,77.12
2024-01-15T08:44:05.053Z,77.38
2024-01-15T08:46:33.480Z,76.93
2024-01-15T08:49:01.879Z,77.27
2024-01-15T08:51:30.179Z,77.01
2024-01-15T08:53:59.462Z,76.68
2024-01-15T08:56:28.684Z,76.77
2024-01-15T08:58:56.928Z,76.91
2024-01-15T09:01:26.874Z,76.63
2024-01-15T09:03:57.099Z,76.29
2024-01-15T09:06:25.335Z,77.06
2024-01-15T09:08:53.566Z,76.31
2024-01-15T09:11:21.759Z,77.20
2024-01-15T09:13:49.911Z,77.20
2024-01-15T09:16:20.927Z,77.28
2024-01-15T09:18:50.618Z,76.82
2024-01-15T09:21:18.862Z,77.04
2024-01-15T09:23:47.104Z,76.96
2024-01-15T09:26:15.316Z,76.77
2024-01-15T09:28:43.521Z,76.94
2024-01-15T09:31:12.093Z,76.55
2024-01-15T09:33:40.448Z,76.83
2024-01-15T09:36:10.663Z,76.50
2024-01-15T09:38:39.380Z,76.58
2024-01-15T09:41:07.557Z,77.41
2024-01-15T09:43:38.713Z,77.25
2024-01-15T09:46:07.125Z,76.94
2024-01-15T09:48:36.418Z,76.26
2024-01-15T09:51:05.360Z,77.00
2024-01-15T09:53:35.951Z,76.75
2024-01-15T09:56:04.313Z,77.15
2024-01-15T09:58:33.389Z,76.58
2024-01-15T10:01:08.271Z,76.09
2024-01-15T10:03:37.114Z,76.63
2024-01-15T10:06:06.170Z,75.94
2024-01-15T10:08:38.814Z,76.13
2024-01-15T10:11:10.006Z,76.47
2024-01-15T10:13:42.128Z,75.99
2024-01-15T10:16:10.741Z,76.12
2024-01-15T10:18:40.695Z,75.82
2024-01-15T10:21:11.500Z,75.75
2024-01-15T10:23:41.196Z,75.79
2024-01-15T10:26:09.560Z,75.10
2024-01-15T10:28:40.790Z,75.39
2024-01-15T10:31:09.126Z,75.30
2024-01-15T10:33:39.311Z,74.98
2024-01-15T10:36:15.517Z,74.21
2024-01-15T10:38:45.765Z,74.64
2024-01-15T10:41:14.180Z,74.47
2024-01-15T10:43:48.332Z,73.78
2024-01-15T10:46:19.264Z,74.03
2024-01-15T10:48:48.917Z,73.60
2024-01-15T10:51:17.939Z,73.68
2024-01-15T10:53:48.619Z,73.57
2024-01-15T10:56:19.602Z,72.70
2024-01-15T10:58:48.702Z,73.07
2024-01-15T11:01:18.372Z,72.80
2024-01-15T11:03:48.686Z,73.12
2024-01-15T11:06:21.214Z,72.69
2024-01-15T11:08:55.182Z,72.91
2024-01-15T11:11:24.570Z,73.01
2024-01-15T11:13:53.818Z,72.97
2024-01-15T11:16:22.091Z,73.06
2024-01-15T11:19:07.810Z,72.67
2024-01-15T11:21:45.582Z,72.94
2024-01-15T11:24:42.017Z,71.88
2024-01-15T11:27:13.712Z,72.56
2024-01-15T11:29:41.942Z,72.74
2024-01-15T11:32:10.868Z,72.35
2024-01-15T11:34:55.815Z,72.29
2024-01-15T11:37:25.844Z,72.88
2024-01-15T11:40:05.042Z,72.96
2024-01-15T11:42:33.512Z,72.67
2024-01-15T11:45:05.273Z,73.15
2024-01-15T11:48:18.683Z,72.23
2024-01-15T11:50:49.085Z,71.68
2024-01-15T11:53:35.385Z,72.03
2024-01-15T11:56:14.179Z,72.37
2024-01-15T11:58:42.857Z,72.21
2024-01-15T12:01:11.600Z,72.63
2024-01-15T12:03:39.877Z,72.28
2024-01-15T12:06:09.210Z,72.36
2024-01-15T12:08:40.724Z,72.26
2024-01-15T12:11:15.937Z,71.86
2024-01-15T12:13:48.252Z,71.74
2024-01-15T12:16:19.455Z,72.30
2024-01-15T12:18:47.885Z,72.63
2024-01-15T12:21:16.512Z,72.58
2024-01-15T12:23:44.675Z,71.97
2024-01-15T12:26:14.374Z,71.68
2024-01-15T12:28:42.552Z,72.46
2024-01-15T12:31:10.798Z,72.57
2024-01-15T12:33:39.083Z,72.28
2024-01-15T12:36:10.197Z,72.92
2024-01-15T12:38:38.329Z,72.15
2024-01-15T12:41:06.938Z,73.05
2024-01-15T12:43:38.714Z,73.32
2024-01-15T12:46:07.005Z,72.75
2024-01-15T12:48:35.436Z,72.43
2024-01-15T12:51:08.006Z,72.33
2024-01-15T12:53:36.205Z,71.97
2024-01-15T12:56:04.745Z,72.50
2024-01-15T12:58:32.924Z,72.28
2024-01-15T13:01:02.679Z,72.56
2024-01-15T13:03:31.130Z,72.53
2024-01-15T13:05:59.514Z,72.88
2024-01-15T13:08:29.716Z,73.02
2024-01-15T13:10:58.670Z,72.94
2024-01-15T13:13:26.901Z,72.59
2024-01-15T13:15:55.426Z,73.17
2024-01-15T13:18:25.237Z,72.93
2024-01-15T13:20:53.623Z,73.20
2024-01-15T13:23:21.872Z,73.52
2024-01-15T13:25:51.180Z,73.10
2024-01-15T13:28:19.103Z,73.83
2024-01-15T13:30:47.095Z,73.75
2024-01-15T13:33:15.696Z,73.79
2024-01-15T13:35:45.425Z,74.25
2024-01-15T13:38:13.943Z,73.90
2024-01-15T13:40:42.231Z,73.99
2024-01-15T13:43:10.592Z,74.24
2024-01-15T13:45:38.929Z,74.60
2024-01-15T13:48:09.373Z,74.13
2024-01-15T13:50:38.153Z,74.58
2024-01-15T13:53:08.318Z,74.30
2024-01-15T13:55:37.687Z,74.06
2024-01-15T13:58:06.972Z,75.08
2024-01-15T14:00:35.583Z,74.80
2024-01-15T14:03:04.758Z,75.15
2024-01-15T14:05:33.262Z,75.29
2024-01-15T14:08:01.550Z,75.41
2024-01-15T14:10:31.122Z,75.54
2024-01-15T14:12:59.350Z,75.79
2024-01-15T14:15:28.765Z,76.06
2024-01-15T14:17:57.260Z,76.54
2024-01-15T14:20:25.624Z,75.72
2024-01-15T14:22:53.845Z,76.83
2024-01-15T14:25:22.748Z,76.35
2024-01-15T14:27:52.919Z,77.01
2024-01-15T14:30:21.237Z,77.24
2024-01-15T14:32:49.508Z,77.30
2024-01-15T14:35:19.938Z,77.31
2024-01-15T14:37:49.800Z,77.51
2024-01-15T14:40:21.148Z,77.48
2024-01-15T14:42:49.343Z,78.06
2024-01-15T14:45:18.978Z,77.97
2024-01-15T14:47:47.845Z,78.03
2024-01-15T14:50:16.102Z,78.16
2024-01-15T14:52:45.961Z,78.21
2024-01-15T14:55:15.778Z,78.22
2024-01-15T14:57:44.420Z,78.75
2024-01-15T15:00:14.954Z,79.03
2024-01-15T15:02:49.665Z,78.14
2024-01-15T15:05:22.984Z,78.57
2024-01-15T15:07:51.163Z,78.64
2024-01-15T15:10:19.675Z,78.11
2024-01-15T15:12:48.180Z,78.66
2024-01-15T15:15:20.671Z,78.96
2024-01-15T15:17:51.628Z,78.41
2024-01-15T15:20:22.837Z,78.39
2024-01-15T15:22:52.328Z,77.98
2024-01-15T15:25:20.275Z,78.41
2024-01-15T15:27:48.497Z,77.94
2024-01-15T15:30:16.991Z,78.74
2024-01-15T15:32:45.477Z,78.71
2024-01-15T15:35:19.390Z,78.62
2024-01-15T15:37:47.815Z,77.78
2024-01-15T15:40:19.875Z,77.96
2024-01-15T15:42:48.058Z,78.70
2024-01-15T15:45:16.429Z,77.96
2024-01-15T15:47:47.844Z,77.88
2024-01-15T15:50:18.142Z,78.31
2024-01-15T15:52:46.389Z,77.20
2024-01-15T15:55:14.570Z,76.99
2024-01-15T15:57:44.447Z,77.25
2024-01-15T16:00:14.662Z,78.04
2024-01-15T16:02:44.331Z,78.12
2024-01-15T16:05:18.221Z,78.26
2024-01-15T16:07:49.688Z,77.84
2024-01-15T16:10:21.660Z,78.12
2024-01-15T16:12:52.920Z,78.70
2024-01-15T16:15:22.953Z,78.13
2024-01-15T16:23:17.512Z,78.69
2024-01-15T16:23:32.345Z,78.72
2024-01-15T16:24:06.087Z,78.87
2024-01-15T16:26:21.410Z,78.75
2024-01-15T16:28:49.835Z,78.83
2024-01-15T16:31:18.046Z,79.04
2024-01-15T16:33:50.224Z,78.33
2024-01-15T16:36:22.763Z,78.59
2024-01-15T16:38:52.393Z,78.50
2024-01-15T16:41:20.918Z,78.19
2024-01-15T16:43:52.583Z,77.57
2024-01-15T16:46:21.576Z,78.20
2024-01-15T16:48:50.020Z,78.76
2024-01-15T16:51:18.489Z,78.30
2024-01-15T16:53:49.488Z,78.52
2024-01-15T16:56:19.386Z,78.90
2024-01-15T16:58:52.628Z,78.11
2024-01-15T17:01:22.603Z,78.21
2024-01-15T17:03:55.141Z,78.61
2024-01-15T17:06:27.681Z,77.38
2024-01-15T17:08:58.512Z,77.63
2024-01-15T17:11:29.174Z,78.48
2024-01-15T17:14:02.622Z,78.50
2024-01-15T17:16:30.876Z,79.14
2024-01-15T17:18:59.228Z,78.76
2024-01-15T17:21:27.430Z,77.31
2024-01-15T17:23:55.596Z,77.59
2024-01-15T17:26:23.796Z,77.72
2024-01-15T17:28:53.454Z,78.02
2024-01-15T17:31:22.156Z,78.18
2024-01-15T17:33:51.126Z,77.99
2024-01-15T17:36:19.585Z,79.24
2024-01-15T17:38:47.766Z,78.36
2024-01-15T17:41:16.016Z,78.49
2024-01-15T17:43:44.523Z,77.79
2024-01-15T17:46:15.718Z,79.08
2024-01-15T17:48:43.993Z,78.13
2024-01-15T17:51:12.845Z,79.20
2024-01-15T17:53:41.412Z,78.22
2024-01-15T17:56:09.668Z,77.91
2024-01-15T17:58:37.826Z,77.72
2024-01-15T18:01:06.321Z,78.64
2024-01-15T18:03:36.612Z,77.89
2024-01-15T18:06:05.083Z,77.26
2024-01-15T18:08:33.379Z,78.27
2024-01-15T18:11:01.895Z,78.10
2024-01-15T18:13:30.108Z,77.92
2024-01-15T18:15:58.955Z,77.85
2024-01-15T18:18:27.919Z,77.42
2024-01-15T18:20:58.040Z,76.98
2024-01-15T18:23:26.268Z,77.72
2024-01-15T18:25:54.472Z,76.99
2024-01-15T18:28:22.633Z,77.43
2024-01-15T18:30:51.680Z,78.22
2024-01-15T18:33:23.702Z,79.07
2024-01-15T18:35:52.274Z,78.42
2024-01-15T18:38:22.725Z,78.77
2024-01-15T18:40:50.964Z,79.35
2024-01-15T18:43:19.881Z,79.51
2024-01-15T18:45:48.094Z,79.95
2024-01-15T18:48:16.682Z,79.71
2024-01-15T18:50:45.991Z,79.39
2024-01-15T18:53:14.836Z,79.41
2024-01-15T18:55:47.029Z,78.62
2024-01-15T18:58:15.253Z,78.93
2024-01-15T19:00:43.507Z,77.77
2024-01-15T19:03:11.818Z,77.42
2024-01-15T19:05:41.289Z,79.01
2024-01-15T19:08:12.380Z,78.97
2024-01-15T19:10:41.902Z,78.46
2024-01-15T19:13:13.207Z,78.92
2024-01-15T19:15:41.771Z,77.72
2024-01-15T19:18:12.283Z,77.51
2024-01-15T19:20:40.886Z,79.18
2024-01-15T19:23:10.449Z,77.32
2024-01-15T19:25:38.313Z,77.82
2024-01-15T19:28:07.519Z,77.17
2024-01-15T19:30:37.091Z,78.00
2024-01-15T19:33:05.351Z,77.23
2024-01-15T19:35:34.129Z,77.59
2024-01-15T19:38:03.152Z,77.15
2024-01-15T19:40:31.552Z,77.39
2024-01-15T19:42:59.828Z,77.49
2024-01-15T19:45:28.026Z,78.37
2024-01-15T19:47:58.623Z,78.78
2024-01-15T19:50:27.351Z,78.63
2024-01-15T19:52:57.828Z,77.00
2024-01-15T19:55:26.175Z,76.76
2024-01-15T19:57:54.398Z,77.32
2024-01-15T20:00:22.770Z,77.71
2024-01-15T20:02:54.166Z,78.23
2024-01-15T20:05:23.909Z,78.10
2024-01-15T20:07:52.170Z,77.68
2024-01-15T20:10:21.161Z,79.39
2024-01-15T20:12:49.642Z,78.80
2024-01-15T20:15:19.504Z,78.88
2024-01-15T20:17:49.833Z,78.41
2024-01-15T20:20:18.236Z,77.90
2024-01-15T20:22:48.133Z,78.50
2024-01-15T20:25:16.598Z,78.38
2024-01-15T20:27:44.822Z,79.32
2024-01-15T20:30:14.094Z,78.38
2024-01-15T20:32:51.428Z,76.99
2024-01-15T20:35:22.244Z,77.90
2024-01-15T20:37:56.867Z,78.03
2024-01-15T20:40:25.301Z,77.96
2024-01-15T20:42:53.548Z,78.81
2024-01-15T20:45:23.599Z,78.94
2024-01-15T20:47:53.129Z,77.89
2024-01-15T20:50:22.588Z,78.54
2024-01-15T20:52:55.561Z,78.14
2024-01-15T20:55:23.788Z,78.64
2024-01-15T20:57:52.076Z,77.99
2024-01-15T21:00:21.540Z,80.18
2024-01-15T21:02:49.948Z,78.93
2024-01-15T21:05:19.594Z,79.25
2024-01-15T21:07:51.171Z,78.67
2024-01-15T21:10:21.069Z,78.57
2024-01-15T21:12:50.067Z,79.16
2024-01-15T21:15:18.541Z,78.53
2024-01-15T21:17:50.519Z,79.26
2024-01-15T21:20:19.220Z,78.94
2024-01-15T21:22:47.608Z,78.63
2024-01-15T21:25:15.911Z,78.52
2024-01-15T21:27:47.351Z,78.70
2024-01-15T21:30:17.118Z,78.42
2024-01-15T21:32:45.674Z,78.35
2024-01-15T21:35:14.570Z,78.15
2024-01-15T21:37:43.257Z,78.10
2024-01-15T21:40:12.351Z,78.35
2024-01-15T21:42:41.349Z,78.71
2024-01-15T21:45:11.575Z,78.30
2024-01-15T21:47:42.455Z,78.47
2024-01-15T21:50:11.262Z,78.27
2024-01-15T21:52:39.823Z,78.88
2024-01-15T21:55:10.948Z,79.48
2024-01-15T21:57:39.460Z,79.44
2024-01-15T22:00:09.422Z,79.21
2024-01-15T22:02:41.985Z,79.47
2024-01-15T22:05:12.610Z,80.11
2024-01-15T22:07:44.796Z,81.04
2024-01-15T22:10:13.858Z,80.57
2024-01-15T22:12:43.666Z,80.43
2024-01-15T22:15:14.243Z,79.05
2024-01-15T22:17:44.296Z,79.61
2024-01-15T22:20:13.535Z,79.79
2024-01-15T22:22:41.888Z,79.62
2024-01-15T22:25:11.035Z,78.86
2024-01-15T22:27:39.227Z,79.14
2024-01-15T22:30:08.887Z,78.58
2024-01-15T22:32:37.245Z,79.18
2024-01-15T22:35:07.894Z,78.90
2024-01-15T22:37:36.156Z,79.02
2024-01-15T22:40:04.676Z,79.26
2024-01-15T22:42:32.988Z,78.87
2024-01-15T22:45:01.571Z,78.65
2024-01-15T22:47:29.904Z,78.94
2024-01-15T22:49:58.231Z,78.34
2024-01-15T22:52:27.977Z,79.17
2024-01-15T22:54:59.420Z,79.70
2024-01-15T22:57:27.742Z,79.34
2024-01-15T22:59:56.007Z,79.16
2024-01-15T23:02:24.667Z,78.75
2024-01-15T23:04:52.966Z,79.91
2024-01-15T23:07:21.486Z,79.50
2024-01-15T23:09:51.200Z,79.29
2024-01-15T23:12:19.493Z,79.45
2024-01-15T23:14:47.701Z,79.53
2024-01-15T23:17:15.960Z,79.74
2024-01-15T23:19:44.180Z,80.22
2024-01-15T23:22:13.521Z,80.15
2024-01-15T23:24:42.141Z,79.81
2024-01-15T23:27:12.071Z,79.31
2024-01-15T23:29:40.303Z,79.58
2024-01-15T23:32:08.559Z,78.41
2024-01-15T23:34:37.349Z,77.49
2024-01-15T23:37:05.987Z,77.76
2024-01-15T23:39:35.100Z,77.18
2024-01-15T23:42:03.377Z,77.66
2024-01-15T23:44:33.146Z,78.17
2024-01-15T23:47:01.379Z,77.59
2024-01-15T23:49:31.303Z,77.68
2024-01-15T23:51:59.651Z,77.85
2024-01-15T23:54:27.875Z,77.04
2024-01-15T23:56:56.105Z,78.07
2024-01-15T23:59:24.522Z,78.19
